createdAt,value
2022-08-31T00:00:29.668Z,102653.06
2022-08-31T00:03:14.997Z,102646.75
2022-08-31T00:05:41.774Z,102649.47
2022-08-31T00:08:09.001Z,102642.59
2022-08-31T00:10:37.228Z,102649.84
2022-08-31T00:13:06.865Z,102650.72
2022-08-31T00:15:35.382Z,102656.78
2022-08-31T00:18:02.760Z,102649.81
2022-08-31T00:20:33.078Z,102645.34
2022-08-31T00:23:11.327Z,102650.75
2022-08-31T00:25:40.137Z,102655.25
2022-08-31T00:28:07.929Z,102652.53
2022-08-31T00:30:35.499Z,102655.94
2022-08-31T00:33:03.167Z,102654.34
2022-08-31T00:35:32.719Z,102650.06
2022-08-31T00:38:00.342Z,102652.97
2022-08-31T00:40:27.558Z,102647.06
2022-08-31T00:42:54.575Z,102653.56
2022-08-31T00:45:22.129Z,102648.47
2022-08-31T00:47:49.110Z,102658.50
2022-08-31T00:50:17.614Z,102655.91
2022-08-31T00:52:52.756Z,102660.59
2022-08-31T00:55:33.796Z,102665.13
2022-08-31T00:58:11.305Z,102665.22
2022-08-31T01:00:40.395Z,102669.84
2022-08-31T01:03:08.300Z,102671.72
2022-08-31T01:05:36.375Z,102680.50
2022-08-31T01:08:05.390Z,102677.00
2022-08-31T01:10:35.495Z,102685.00
2022-08-31T01:13:02.785Z,102683.44
2022-08-31T01:15:30.974Z,102682.69
2022-08-31T01:18:06.210Z,102694.16
2022-08-31T01:20:54.717Z,102699.56
2022-08-31T01:23:33.266Z,102695.22
2022-08-31T01:26:02.539Z,102704.13
2022-08-31T01:28:29.416Z,102708.63
2022-08-31T01:31:07.810Z,102714.00
2022-08-31T01:33:37.657Z,102714.94
2022-08-31T01:36:06.668Z,102724.72
2022-08-31T01:38:34.924Z,102724.78
2022-08-31T01:41:03.858Z,102734.53
2022-08-31T01:43:36.019Z,102744.19
2022-08-31T01:46:05.391Z,102750.22
2022-08-31T01:48:41.282Z,102753.53
2022-08-31T01:51:12.487Z,102754.03
2022-08-31T01:53:42.645Z,102746.94
2022-08-31T01:56:19.520Z,102744.25
2022-08-31T01:58:46.461Z,102751.28
2022-08-31T02:01:33.943Z,102753.13
2022-08-31T02:04:04.247Z,102759.13
2022-08-31T02:06:32.180Z,102756.44
2022-08-31T02:08:59.650Z,102763.59
2022-08-31T02:11:26.621Z,102770.59
2022-08-31T02:13:53.924Z,102772.34
2022-08-31T02:16:20.878Z,102775.03
2022-08-31T02:18:47.703Z,102782.97
2022-08-31T02:21:14.558Z,102775.91
2022-08-31T02:23:42.211Z,102784.81
2022-08-31T02:26:10.406Z,102790.09
2022-08-31T02:28:37.562Z,102790.13
2022-08-31T02:31:04.875Z,102796.28
2022-08-31T02:33:39.736Z,102800.75
2022-08-31T02:36:07.310Z,102809.56
2022-08-31T02:38:38.211Z,102812.03
2022-08-31T02:41:06.085Z,102819.81
2022-08-31T02:43:33.381Z,102816.09
2022-08-31T02:46:00.499Z,102815.22
2022-08-31T02:48:35.185Z,102820.59
2022-08-31T02:51:07.563Z,102810.06
2022-08-31T02:53:34.841Z,102813.69
2022-08-31T02:56:02.849Z,102818.16
2022-08-31T02:58:29.862Z,102822.56
2022-08-31T03:00:57.322Z,102823.38
2022-08-31T03:03:24.372Z,102830.47
2022-08-31T03:05:51.709Z,102836.47
2022-08-31T03:08:18.682Z,102818.63
2022-08-31T03:10:48.486Z,102810.50
2022-08-31T03:13:15.952Z,102809.53
2022-08-31T03:15:43.956Z,102808.66
2022-08-31T03:18:12.100Z,102799.72
2022-08-31T03:20:39.148Z,102803.25
2022-08-31T03:23:06.539Z,102798.03
2022-08-31T03:25:33.378Z,102799.03
2022-08-31T03:28:00.530Z,102801.75
2022-08-31T03:30:31.413Z,102809.84
2022-08-31T03:33:09.046Z,102816.19
2022-08-31T03:35:36.048Z,102834.69
2022-08-31T03:38:03.351Z,102833.78
2022-08-31T03:40:30.891Z,102847.00
2022-08-31T03:42:58.907Z,102847.88
2022-08-31T03:45:27.940Z,102856.69
2022-08-31T03:47:55.212Z,102859.50
2022-08-31T03:50:24.120Z,102870.91
2022-08-31T03:52:58.843Z,102877.97
2022-08-31T03:55:28.219Z,102888.44
2022-08-31T03:57:56.780Z,102893.44
2022-08-31T04:00:24.651Z,102894.22
2022-08-31T04:02:59.961Z,102889.97
2022-08-31T04:05:35.726Z,102896.28
2022-08-31T04:08:21.632Z,102901.63
2022-08-31T04:11:12.128Z,102913.97
2022-08-31T04:14:12.023Z,102922.72
2022-08-31T04:17:00.818Z,102928.84
2022-08-31T04:19:42.186Z,102947.31
2022-08-31T04:22:30.596Z,102946.44
2022-08-31T04:25:17.551Z,102942.22
2022-08-31T04:27:50.307Z,102960.81
2022-08-31T04:30:18.145Z,102974.13
2022-08-31T04:32:45.097Z,102979.50
2022-08-31T04:35:12.196Z,103001.53
2022-08-31T04:37:46.384Z,103010.28
2022-08-31T04:40:19.814Z,103023.53
2022-08-31T04:42:48.253Z,103047.25
2022-08-31T04:45:17.530Z,103064.69
2022-08-31T04:47:44.561Z,103082.22
2022-08-31T04:50:13.205Z,103091.81
2022-08-31T04:53:03.642Z,103092.72
2022-08-31T04:55:31.980Z,103098.03
2022-08-31T04:57:58.930Z,103112.13
2022-08-31T05:00:25.938Z,103115.63
2022-08-31T05:03:19.943Z,103126.13
2022-08-31T05:05:52.398Z,103125.16
2022-08-31T05:08:20.380Z,103113.63
2022-08-31T05:10:48.574Z,103111.81
2022-08-31T05:13:15.614Z,103101.25
2022-08-31T05:15:43.677Z,103096.00
2022-08-31T05:18:13.529Z,103096.84
2022-08-31T05:20:48.296Z,103087.16
2022-08-31T05:23:15.410Z,103085.47
2022-08-31T05:25:43.681Z,103086.44
2022-08-31T05:28:10.922Z,103096.97
2022-08-31T05:30:38.101Z,103107.53
2022-08-31T05:33:08.571Z,103105.81
2022-08-31T05:35:36.198Z,103106.56
2022-08-31T05:38:03.664Z,103118.00
2022-08-31T05:40:30.831Z,103124.13
2022-08-31T05:42:59.581Z,103129.44
2022-08-31T05:45:26.882Z,103140.88
2022-08-31T05:47:54.117Z,103151.44
2022-08-31T05:50:21.701Z,103164.59
2022-08-31T05:52:49.509Z,103177.69
2022-08-31T05:55:16.431Z,103191.59
2022-08-31T05:57:43.794Z,103194.13
2022-08-31T06:00:11.243Z,103197.56
2022-08-31T06:02:42.786Z,103193.94
2022-08-31T06:05:12.890Z,103184.91
2022-08-31T06:07:40.432Z,103177.44
2022-08-31T06:10:11.415Z,103154.66
2022-08-31T06:12:40.533Z,103117.88
2022-08-31T06:15:07.636Z,103076.75
2022-08-31T06:17:35.089Z,103034.78
2022-08-31T06:20:05.192Z,103006.31
2022-08-31T06:22:35.622Z,102960.88
2022-08-31T06:25:07.129Z,102934.09
2022-08-31T06:27:44.076Z,102901.75
2022-08-31T06:30:11.261Z,102874.78
2022-08-31T06:32:38.014Z,102851.38
2022-08-31T06:35:06.081Z,102826.44
2022-08-31T06:37:55.341Z,102810.19
2022-08-31T06:40:51.085Z,102802.63
2022-08-31T06:43:31.928Z,102799.41
2022-08-31T06:46:02.411Z,102781.75
2022-08-31T06:48:53.306Z,102772.25
2022-08-31T06:51:20.151Z,102769.00
2022-08-31T06:53:47.018Z,102759.88
2022-08-31T06:56:32.918Z,102751.09
2022-08-31T06:59:18.541Z,102742.38
2022-08-31T07:02:14.642Z,102737.25
2022-08-31T07:04:41.741Z,102737.97
2022-08-31T07:07:11.293Z,102735.41
2022-08-31T07:09:41.165Z,102734.97
2022-08-31T07:12:08.989Z,102728.75
2022-08-31T07:14:37.496Z,102732.00
2022-08-31T07:17:05.227Z,102730.81
2022-08-31T07:19:33.231Z,102734.84
2022-08-31T07:22:06.542Z,102732.06
2022-08-31T07:24:35.306Z,102738.91
2022-08-31T07:27:09.985Z,102736.41
2022-08-31T07:29:43.337Z,102729.63
2022-08-31T07:32:14.839Z,102727.25
2022-08-31T07:34:44.147Z,102737.06
2022-08-31T07:37:41.330Z,102742.53
2022-08-31T07:40:28.157Z,102741.91
2022-08-31T07:42:55.377Z,102738.25
2022-08-31T07:45:25.863Z,102736.53
2022-08-31T07:47:59.793Z,102724.03
2022-08-31T07:50:31.628Z,102735.53
2022-08-31T07:53:23.107Z,102726.75
2022-08-31T07:56:05.051Z,102723.28
2022-08-31T07:58:35.036Z,102716.78
2022-08-31T08:01:04.157Z,102716.53
2022-08-31T08:03:30.957Z,102722.69
2022-08-31T08:06:17.441Z,102716.47
2022-08-31T08:09:24.109Z,102722.50
2022-08-31T08:12:15.272Z,102725.16
2022-08-31T08:14:59.752Z,102730.44
2022-08-31T08:17:55.808Z,102723.38
2022-08-31T08:20:33.990Z,102727.59
2022-08-31T08:23:14.067Z,102716.69
2022-08-31T08:26:07.034Z,102721.63
2022-08-31T08:28:56.447Z,102722.09
2022-08-31T08:31:25.052Z,102715.84
2022-08-31T08:33:52.478Z,102726.06
2022-08-31T08:36:20.184Z,102720.63
2022-08-31T08:38:50.516Z,102732.16
2022-08-31T08:41:22.825Z,102726.38
2022-08-31T08:43:53.629Z,102726.56
2022-08-31T08:46:48.392Z,102725.53
2022-08-31T08:49:29.334Z,102722.66
2022-08-31T08:52:07.141Z,102726.09
2022-08-31T08:54:40.526Z,102728.28
2022-08-31T08:57:15.108Z,102741.47
2022-08-31T08:59:46.870Z,102724.00
2022-08-31T09:02:46.817Z,102731.31
2022-08-31T09:05:46.080Z,102718.31
2022-08-31T09:08:48.460Z,102726.28
2022-08-31T09:11:27.349Z,102716.06
2022-08-31T09:14:06.381Z,102708.63
2022-08-31T09:16:56.196Z,102706.13
2022-08-31T09:19:23.448Z,102707.81
2022-08-31T09:21:56.353Z,102712.25
2022-08-31T09:24:30.205Z,102703.22
2022-08-31T09:27:18.935Z,102706.44
2022-08-31T09:29:58.300Z,102704.78
2022-08-31T09:32:29.097Z,102702.81
2022-08-31T09:35:09.218Z,102711.63
2022-08-31T09:37:46.048Z,102705.75
2022-08-31T09:40:23.592Z,102696.59
2022-08-31T09:43:05.746Z,102695.81
2022-08-31T09:45:41.399Z,102702.56
2022-08-31T09:48:09.805Z,102691.28
2022-08-31T09:50:46.245Z,102693.38
2022-08-31T09:53:40.803Z,102696.88
2022-08-31T09:56:21.917Z,102700.84
2022-08-31T09:58:55.213Z,102690.94
2022-08-31T10:01:45.414Z,102680.78
2022-08-31T10:04:27.140Z,102692.25
2022-08-31T10:07:32.877Z,102683.28
2022-08-31T10:10:05.455Z,102693.19
2022-08-31T10:12:45.231Z,102687.34
2022-08-31T10:15:19.407Z,102686.31
2022-08-31T10:18:11.919Z,102676.72
2022-08-31T10:20:46.485Z,102685.09
2022-08-31T10:23:26.935Z,102674.59
2022-08-31T10:26:13.027Z,102679.53
2022-08-31T10:28:55.795Z,102683.00
2022-08-31T10:31:36.751Z,102670.78
2022-08-31T10:34:29.822Z,102684.41
2022-08-31T10:37:03.785Z,102659.91
2022-08-31T10:39:48.385Z,102658.81
2022-08-31T10:42:41.361Z,102664.09
2022-08-31T10:45:18.438Z,102666.63
2022-08-31T10:47:50.091Z,102661.78
2022-08-31T10:50:32.038Z,102662.91
2022-08-31T10:53:31.810Z,102657.69
2022-08-31T10:56:27.299Z,102648.94
2022-08-31T10:59:05.944Z,102644.41
2022-08-31T11:01:41.786Z,102647.81
2022-08-31T11:04:18.756Z,102649.16
2022-08-31T11:06:57.389Z,102646.75
2022-08-31T11:09:37.498Z,102650.34
2022-08-31T11:12:13.577Z,102640.59
2022-08-31T11:14:45.099Z,102634.28
2022-08-31T11:17:12.090Z,102647.88
2022-08-31T11:20:06.733Z,102645.28
2022-08-31T11:22:52.584Z,102625.09
2022-08-31T11:26:05.702Z,102638.31
2022-08-31T11:28:49.568Z,102629.19
2022-08-31T11:31:24.118Z,102632.19
2022-08-31T11:34:15.144Z,102620.34
2022-08-31T11:36:42.627Z,102638.47
2022-08-31T11:39:09.277Z,102628.38
2022-08-31T11:41:48.418Z,102635.78
2022-08-31T11:44:30.523Z,102628.75
2022-08-31T11:47:28.445Z,102613.53
2022-08-31T11:50:05.727Z,102607.97
2022-08-31T11:52:43.499Z,102614.38
2022-08-31T11:55:18.374Z,102616.56
2022-08-31T11:58:20.104Z,102609.47
2022-08-31T12:00:59.996Z,102593.31
2022-08-31T12:03:43.767Z,102593.25
2022-08-31T12:06:33.494Z,102599.50
2022-08-31T12:09:07.057Z,102599.19
2022-08-31T12:11:49.146Z,102576.53
2022-08-31T12:14:41.020Z,102588.72
2022-08-31T12:17:14.069Z,102581.50
2022-08-31T12:20:08.454Z,102596.81
2022-08-31T12:23:12.335Z,102575.34
2022-08-31T12:26:02.781Z,102587.97
2022-08-31T12:28:56.064Z,102582.91
2022-08-31T12:31:22.932Z,102581.31
2022-08-31T12:34:06.782Z,102581.13
2022-08-31T12:36:36.317Z,102576.47
2022-08-31T12:39:10.869Z,102575.28
2022-08-31T12:41:49.619Z,102575.81
2022-08-31T12:44:22.668Z,102569.34
2022-08-31T12:47:04.925Z,102578.16
2022-08-31T12:49:52.963Z,102592.06
2022-08-31T12:52:43.351Z,102569.53
2022-08-31T12:55:43.374Z,102577.25
2022-08-31T12:58:41.936Z,102573.59
2022-08-31T13:01:12.620Z,102569.53
2022-08-31T13:03:53.982Z,102574.16
2022-08-31T13:06:29.301Z,102573.94
2022-08-31T13:08:56.641Z,102570.94
2022-08-31T13:11:41.236Z,102569.56
2022-08-31T13:14:20.433Z,102567.94
2022-08-31T13:17:18.430Z,102562.50
2022-08-31T13:19:52.564Z,102571.06
2022-08-31T13:22:33.503Z,102568.44
2022-08-31T13:25:38.375Z,102559.97
2022-08-31T13:28:26.251Z,102567.91
2022-08-31T13:31:06.515Z,102567.38
2022-08-31T13:33:36.525Z,102557.38
2022-08-31T13:36:30.320Z,102546.78
2022-08-31T13:39:03.717Z,102544.78
2022-08-31T13:41:36.072Z,102553.00
2022-08-31T13:44:08.964Z,102550.31
2022-08-31T13:46:44.151Z,102537.53
2022-08-31T13:49:41.840Z,102541.47
2022-08-31T13:52:16.371Z,102538.63
2022-08-31T13:54:43.294Z,102547.72
2022-08-31T13:57:20.610Z,102547.41
2022-08-31T13:59:47.877Z,102530.28
2022-08-31T14:02:16.110Z,102543.06
2022-08-31T14:04:49.063Z,102529.59
2022-08-31T14:07:23.783Z,102530.38
2022-08-31T14:09:58.688Z,102530.22
2022-08-31T14:12:37.179Z,102537.59
2022-08-31T14:15:09.191Z,102530.81
2022-08-31T14:21:10.211Z,102524.44
2022-08-31T14:23:41.358Z,102518.78
2022-08-31T14:26:15.741Z,102519.72
2022-08-31T14:28:46.866Z,102520.63
2022-08-31T14:31:37.377Z,102514.13
2022-08-31T14:34:20.161Z,102524.88
2022-08-31T14:36:53.055Z,102522.41
2022-08-31T14:39:45.518Z,102516.78
2022-08-31T14:42:25.697Z,102512.44
2022-08-31T14:44:56.765Z,102510.81
2022-08-31T14:47:27.751Z,102505.53
2022-08-31T14:50:01.232Z,102500.25
2022-08-31T14:52:28.545Z,102501.03
2022-08-31T14:55:02.688Z,102505.44
2022-08-31T14:57:32.836Z,102501.25
2022-08-31T15:00:02.086Z,102500.34
2022-08-31T15:02:34.098Z,102499.78
2022-08-31T15:05:09.048Z,102508.41
2022-08-31T15:07:40.382Z,102496.03
2022-08-31T15:10:12.859Z,102507.22
2022-08-31T15:12:40.074Z,102502.81
2022-08-31T15:15:07.648Z,102502.88
2022-08-31T15:17:36.164Z,102500.59
2022-08-31T15:20:05.952Z,102494.22
2022-08-31T15:22:35.093Z,102498.72
2022-08-31T15:25:02.350Z,102516.22
2022-08-31T15:27:31.360Z,102506.88
2022-08-31T15:30:08.026Z,102497.81
2022-08-31T15:32:39.701Z,102494.19
2022-08-31T15:35:07.728Z,102503.19
2022-08-31T15:37:34.501Z,102495.13
2022-08-31T15:40:03.763Z,102504.69
2022-08-31T15:42:36.714Z,102499.41
2022-08-31T15:45:04.512Z,102504.38
2022-08-31T15:47:53.514Z,102509.72
2022-08-31T15:50:27.074Z,102511.72
2022-08-31T15:53:06.600Z,102521.72
2022-08-31T15:55:36.165Z,102519.16
2022-08-31T15:58:04.090Z,102520.94
2022-08-31T16:00:32.675Z,102525.09
2022-08-31T16:03:01.494Z,102521.38
2022-08-31T16:05:38.943Z,102527.03
2022-08-31T16:08:11.261Z,102534.66
2022-08-31T16:10:44.060Z,102534.38
2022-08-31T16:13:11.209Z,102527.72
2022-08-31T16:15:38.778Z,102532.50
2022-08-31T16:18:06.386Z,102530.66
2022-08-31T16:20:34.605Z,102527.72
2022-08-31T16:23:07.831Z,102533.75
2022-08-31T16:25:47.432Z,102536.09
2022-08-31T16:28:18.113Z,102539.81
2022-08-31T16:30:45.227Z,102532.03
2022-08-31T16:33:12.340Z,102533.34
2022-08-31T16:35:39.741Z,102534.53
2022-08-31T16:38:07.243Z,102541.00
2022-08-31T16:40:35.467Z,102545.16
2022-08-31T16:43:03.216Z,102543.69
2022-08-31T16:45:30.090Z,102550.06
2022-08-31T16:48:16.899Z,102552.84
2022-08-31T16:50:47.617Z,102553.31
2022-08-31T16:53:18.300Z,102565.97
2022-08-31T16:55:47.526Z,102561.72
2022-08-31T16:58:25.078Z,102564.44
2022-08-31T17:01:03.612Z,102570.03
2022-08-31T17:03:30.441Z,102580.16
2022-08-31T17:05:57.297Z,102567.81
2022-08-31T17:08:24.070Z,102583.97
2022-08-31T17:10:51.348Z,102583.22
2022-08-31T17:13:18.148Z,102587.94
2022-08-31T17:15:44.903Z,102578.63
2022-08-31T17:18:11.701Z,102585.75
2022-08-31T17:20:40.829Z,102584.97
2022-08-31T17:23:10.226Z,102586.94
2022-08-31T17:25:37.071Z,102590.47
2022-08-31T17:28:13.001Z,102589.88
2022-08-31T17:30:40.769Z,102592.59
2022-08-31T17:33:12.619Z,102601.50
2022-08-31T17:35:41.974Z,102606.81
2022-08-31T17:38:08.744Z,102610.59
2022-08-31T17:40:35.583Z,102606.28
2022-08-31T17:43:02.444Z,102612.66
2022-08-31T17:45:29.241Z,102615.72
2022-08-31T17:47:56.081Z,102623.78
2022-08-31T17:50:22.906Z,102616.31
2022-08-31T17:52:49.815Z,102617.41
2022-08-31T17:55:16.678Z,102618.47
2022-08-31T17:57:44.079Z,102622.31
2022-08-31T18:00:14.441Z,102611.75
2022-08-31T18:02:41.600Z,102618.09
2022-08-31T18:05:11.615Z,102625.41
2022-08-31T18:07:39.629Z,102630.06
2022-08-31T18:10:06.806Z,102628.41
2022-08-31T18:12:40.882Z,102632.94
2022-08-31T18:15:12.895Z,102639.09
2022-08-31T18:17:40.534Z,102647.25
2022-08-31T18:20:08.196Z,102644.78
2022-08-31T18:22:34.996Z,102645.72
2022-08-31T18:25:01.827Z,102667.28
2022-08-31T18:27:29.277Z,102669.41
2022-08-31T18:29:56.546Z,102673.06
2022-08-31T18:32:25.124Z,102679.47
2022-08-31T18:34:57.061Z,102691.88
2022-08-31T18:37:25.890Z,102697.69
2022-08-31T18:40:11.653Z,102696.91
2022-08-31T18:42:57.445Z,102705.25
2022-08-31T18:45:26.299Z,102719.38
2022-08-31T18:50:47.400Z,102721.69
2022-08-31T18:53:28.936Z,102727.94
2022-08-31T18:56:07.623Z,102742.56
2022-08-31T18:58:35.731Z,102747.13
2022-08-31T19:01:02.855Z,102754.22
2022-08-31T19:03:30.132Z,102733.22
2022-08-31T19:05:57.390Z,102733.28
2022-08-31T19:08:26.157Z,102750.16
2022-08-31T19:10:54.299Z,102753.81
2022-08-31T19:13:21.367Z,102768.94
2022-08-31T19:15:48.408Z,102776.16
2022-08-31T19:18:15.568Z,102784.69
2022-08-31T19:20:42.489Z,102796.19
2022-08-31T19:23:09.306Z,102796.06
2022-08-31T19:25:45.228Z,102804.94
2022-08-31T19:28:12.036Z,102812.06
2022-08-31T19:30:39.172Z,102824.28
2022-08-31T19:33:11.450Z,102819.94
2022-08-31T19:35:38.440Z,102826.16
2022-08-31T19:38:05.816Z,102832.31
2022-08-31T19:40:39.486Z,102827.72
2022-08-31T19:45:54.143Z,102836.31
2022-08-31T19:48:23.546Z,102839.72
2022-08-31T19:50:52.180Z,102839.94
2022-08-31T19:53:21.254Z,102839.78
2022-08-31T19:55:53.431Z,102837.22
2022-08-31T19:58:26.475Z,102840.00
2022-08-31T20:01:00.663Z,102841.91
2022-08-31T20:03:31.234Z,102852.69
2022-08-31T20:05:59.936Z,102858.19
2022-08-31T20:08:26.897Z,102869.69
2022-08-31T20:10:53.735Z,102865.34
2022-08-31T20:13:24.316Z,102874.34
2022-08-31T20:15:52.851Z,102885.06
2022-08-31T20:18:20.797Z,102884.00
2022-08-31T20:20:50.830Z,102890.13
2022-08-31T20:23:21.391Z,102892.13
2022-08-31T20:25:50.714Z,102906.22
2022-08-31T20:28:21.699Z,102905.38
2022-08-31T20:30:48.588Z,102909.78
2022-08-31T20:33:15.888Z,102916.47
2022-08-31T20:35:47.420Z,102915.72
2022-08-31T20:38:16.516Z,102921.91
2022-08-31T20:40:47.265Z,102918.38
2022-08-31T20:43:14.892Z,102917.53
2022-08-31T20:45:42.099Z,102915.81
2022-08-31T20:48:27.607Z,102927.13
2022-08-31T20:50:55.861Z,102925.31
2022-08-31T20:53:42.273Z,102924.50
2022-08-31T20:56:14.764Z,102924.56
2022-08-31T20:58:45.787Z,102921.09
2022-08-31T21:01:14.311Z,102925.59
2022-08-31T21:03:41.715Z,102924.81
2022-08-31T21:06:11.622Z,102932.81
2022-08-31T21:08:42.457Z,102946.13
2022-08-31T21:11:15.059Z,102940.81
2022-08-31T21:13:42.914Z,102942.66
2022-08-31T21:16:10.721Z,102942.69
2022-08-31T21:18:40.374Z,102941.88
2022-08-31T21:21:10.384Z,102948.94
2022-08-31T21:23:38.644Z,102945.34
2022-08-31T21:26:08.634Z,102944.63
2022-08-31T21:28:39.598Z,102946.41
2022-08-31T21:31:18.338Z,102950.88
2022-08-31T21:33:59.876Z,102950.94
2022-08-31T21:36:28.242Z,102955.44
2022-08-31T21:38:56.845Z,102966.94
2022-08-31T21:41:27.869Z,102975.91
2022-08-31T21:43:58.275Z,102982.19
2022-08-31T21:46:27.779Z,102988.28
2022-08-31T21:48:57.517Z,103003.22
2022-08-31T21:51:30.380Z,103002.19
2022-08-31T21:54:04.214Z,102998.06
2022-08-31T21:56:37.745Z,102977.34
2022-08-31T21:59:06.918Z,102964.09
2022-08-31T22:01:35.177Z,102950.78
2022-08-31T22:04:02.605Z,102936.53
2022-08-31T22:06:31.391Z,102914.19
2022-08-31T22:09:08.198Z,102902.72
2022-08-31T22:11:45.599Z,102888.84
2022-08-31T22:14:16.423Z,102879.41
2022-08-31T22:16:46.565Z,102874.53
2022-08-31T22:19:17.796Z,102862.94
2022-08-31T22:24:35.845Z,102848.88
2022-08-31T22:27:08.304Z,102842.75
2022-08-31T22:29:36.679Z,102840.25
2022-08-31T22:31:21.740Z,102857.78
2022-08-31T22:32:08.751Z,102836.91
2022-08-31T22:34:37.149Z,102821.75
2022-08-31T22:37:04.853Z,102816.53
2022-08-31T22:39:32.562Z,102808.69
2022-08-31T22:42:01.401Z,102797.25
2022-08-31T22:44:32.368Z,102784.19
2022-08-31T22:46:59.286Z,102784.41
2022-08-31T22:49:27.083Z,102783.78
2022-08-31T22:51:54.569Z,102775.78
2022-08-31T22:54:22.035Z,102763.41
2022-08-31T22:56:49.831Z,102759.03
2022-08-31T22:59:26.053Z,102750.19
2022-08-31T23:01:55.891Z,102742.16
2022-08-31T23:04:26.331Z,102736.03
2022-08-31T23:06:55.365Z,102729.06
2022-08-31T23:09:23.588Z,102733.59
2022-08-31T23:11:51.646Z,102722.03
2022-08-31T23:14:21.036Z,102719.13
2022-08-31T23:16:59.028Z,102712.09
2022-08-31T23:19:30.937Z,102708.63
2022-08-31T23:21:58.255Z,102700.56
2022-08-31T23:24:38.526Z,102693.28
2022-08-31T23:27:07.350Z,102692.28
2022-08-31T23:29:47.129Z,102685.28
2022-08-31T23:32:18.074Z,102684.53
2022-08-31T23:34:46.483Z,102683.78
2022-08-31T23:37:14.190Z,102679.22
2022-08-31T23:39:46.177Z,102666.81
2022-08-31T23:42:16.233Z,102658.69
2022-08-31T23:44:44.892Z,102664.78
2022-08-31T23:47:13.870Z,102656.66
2022-08-31T23:49:42.466Z,102660.03
2022-08-31T23:52:12.026Z,102648.47
2022-08-31T23:54:40.212Z,102647.38
2022-08-31T23:57:14.374Z,102645.56
